createdAt,value
2022-09-09T00:00:13.685Z,15.65
2022-09-09T00:02:46.672Z,15.66
2022-09-09T00:05:27.541Z,15.68
2022-09-09T00:08:02.108Z,15.70
2022-09-09T00:10:34.927Z,15.72
2022-09-09T00:13:21.333Z,15.70
2022-09-09T00:15:59.034Z,15.68
2022-09-09T00:18:34.213Z,15.64
2022-09-09T00:21:08.511Z,15.63
2022-09-09T00:23:41.194Z,15.64
2022-09-09T00:26:17.627Z,15.65
2022-09-09T00:28:52.489Z,15.64
2022-09-09T00:31:25.120Z,15.66
2022-09-09T00:33:54.149Z,15.70
2022-09-09T00:36:26.264Z,15.73
2022-09-09T00:38:59.236Z,15.73
2022-09-09T00:41:41.240Z,15.70
2022-09-09T00:44:24.135Z,15.67
2022-09-09T00:47:06.677Z,15.63
2022-09-09T00:49:49.801Z,15.61
2022-09-09T00:52:28.692Z,15.60
2022-09-09T00:55:06.489Z,15.61
2022-09-09T00:57:36.076Z,15.63
2022-09-09T01:00:23.237Z,15.63
2022-09-09T01:03:13.565Z,15.62
2022-09-09T01:05:47.131Z,15.63
2022-09-09T01:08:31.451Z,15.62
2022-09-09T01:11:01.469Z,15.61
2022-09-09T01:13:31.866Z,15.60
2022-09-09T01:16:02.112Z,15.59
2022-09-09T01:18:35.558Z,15.58
2022-09-09T01:21:10.811Z,15.58
2022-09-09T01:23:57.087Z,15.58
2022-09-09T01:29:09.107Z,15.58
2022-09-09T01:32:05.821Z,15.61
2022-09-09T01:34:46.867Z,15.62
2022-09-09T01:43:22.104Z,15.63
2022-09-09T01:46:02.792Z,15.64
2022-09-09T01:48:44.883Z,15.60
2022-09-09T01:51:24.409Z,15.57
2022-09-09T01:54:11.442Z,15.56
2022-09-09T01:57:10.667Z,15.53
2022-09-09T02:05:46.937Z,15.48
2022-09-09T02:08:29.373Z,15.48
2022-09-09T02:11:21.156Z,15.49
2022-09-09T02:14:04.242Z,15.49
2022-09-09T02:27:17.258Z,15.40
2022-09-09T02:29:48.170Z,15.42
2022-09-09T02:32:19.354Z,15.44
2022-09-09T02:34:50.133Z,15.44
2022-09-09T02:39:42.920Z,15.41
2022-09-09T02:42:10.642Z,15.38
2022-09-09T02:44:39.704Z,15.36
2022-09-09T02:47:18.898Z,15.36
2022-09-09T02:50:00.384Z,15.34
2022-09-09T02:52:32.134Z,15.33
2022-09-09T02:55:07.377Z,15.30
2022-09-09T02:57:36.439Z,15.27
2022-09-09T03:00:06.816Z,15.25
2022-09-09T03:02:34.547Z,15.23
2022-09-09T03:05:02.644Z,15.18
2022-09-09T03:07:30.232Z,15.14
2022-09-09T03:09:57.828Z,15.09
2022-09-09T03:12:25.440Z,15.05
2022-09-09T03:14:53.068Z,15.00
2022-09-09T03:17:22.134Z,14.97
2022-09-09T03:19:50.547Z,14.93
2022-09-09T03:22:18.100Z,14.93
2022-09-09T03:24:47.655Z,14.91
2022-09-09T03:27:16.166Z,14.90
2022-09-09T03:29:43.694Z,14.89
2022-09-09T03:32:12.099Z,14.88
2022-09-09T03:34:41.252Z,14.90
2022-09-09T03:37:08.838Z,14.89
2022-09-09T03:39:36.522Z,14.91
2022-09-09T03:42:04.905Z,14.93
2022-09-09T03:44:32.577Z,14.95
2022-09-09T03:47:01.658Z,14.95
2022-09-09T03:49:30.262Z,14.94
2022-09-09T03:51:59.990Z,14.91
2022-09-09T03:54:28.254Z,14.88
2022-09-09T03:56:55.787Z,14.89
2022-09-09T03:59:24.063Z,14.90
2022-09-09T04:01:52.200Z,14.93
2022-09-09T04:04:20.888Z,14.99
2022-09-09T04:06:49.205Z,15.03
2022-09-09T04:09:18.062Z,15.03
2022-09-09T04:11:46.479Z,15.03
2022-09-09T04:14:14.698Z,15.01
2022-09-09T04:16:44.203Z,15.00
2022-09-09T04:19:13.489Z,15.01
2022-09-09T04:21:41.706Z,14.99
2022-09-09T04:24:09.955Z,15.02
2022-09-09T04:26:39.251Z,15.04
2022-09-09T04:29:08.623Z,15.10
2022-09-09T04:31:36.574Z,15.14
2022-09-09T04:34:06.315Z,15.18
2022-09-09T04:36:34.477Z,15.19
2022-09-09T04:39:02.556Z,15.20
2022-09-09T04:41:32.413Z,15.21
2022-09-09T04:44:01.746Z,15.24
2022-09-09T04:46:29.347Z,15.27
2022-09-09T04:48:56.889Z,15.28
2022-09-09T04:51:25.902Z,15.31
2022-09-09T04:53:55.058Z,15.32
2022-09-09T04:56:22.897Z,15.31
2022-09-09T04:58:50.429Z,15.32
2022-09-09T05:01:22.030Z,15.33
2022-09-09T05:03:49.775Z,15.31
2022-09-09T05:06:19.266Z,15.32
2022-09-09T05:08:47.337Z,15.33
2022-09-09T05:11:17.903Z,15.34
2022-09-09T05:13:46.316Z,15.33
2022-09-09T05:16:14.080Z,15.32
2022-09-09T05:18:44.536Z,15.30
2022-09-09T05:21:13.210Z,15.27
2022-09-09T05:23:41.166Z,15.27
2022-09-09T05:26:14.376Z,15.27
2022-09-09T05:28:44.982Z,15.30
2022-09-09T05:31:14.096Z,15.32
2022-09-09T05:33:46.735Z,15.33
2022-09-09T05:36:16.292Z,15.34
2022-09-09T05:38:44.626Z,15.37
2022-09-09T05:41:13.360Z,15.40
2022-09-09T05:43:41.233Z,15.44
2022-09-09T05:46:11.142Z,15.48
2022-09-09T05:48:40.298Z,15.52
2022-09-09T05:51:14.018Z,15.54
2022-09-09T05:53:41.677Z,15.56
2022-09-09T05:56:11.807Z,15.60
2022-09-09T05:58:40.300Z,15.65
2022-09-09T06:01:10.921Z,15.70
2022-09-09T06:03:40.706Z,15.73
2022-09-09T06:06:12.029Z,15.74
2022-09-09T06:08:41.583Z,15.80
2022-09-09T06:11:11.613Z,15.86
2022-09-09T06:13:40.642Z,15.93
2022-09-09T06:16:12.377Z,15.99
2022-09-09T06:18:40.510Z,16.05
2022-09-09T06:21:13.260Z,16.11
2022-09-09T06:23:42.096Z,16.20
2022-09-09T06:26:12.979Z,16.30
2022-09-09T06:28:40.853Z,16.38
2022-09-09T06:31:11.120Z,16.43
2022-09-09T06:33:42.078Z,16.46
2022-09-09T06:36:14.854Z,16.58
2022-09-09T06:38:42.991Z,16.72
2022-09-09T06:41:11.819Z,16.91
2022-09-09T06:43:39.625Z,17.15
2022-09-09T06:46:09.376Z,17.39
2022-09-09T06:48:37.483Z,17.62
2022-09-09T06:51:07.102Z,17.82
2022-09-09T06:53:37.690Z,17.97
2022-09-09T06:56:20.495Z,18.07
2022-09-09T06:58:49.805Z,18.17
2022-09-09T07:01:19.169Z,18.25
2022-09-09T07:03:49.073Z,18.33
2022-09-09T07:06:18.942Z,18.43
2022-09-09T07:08:56.305Z,18.65
2022-09-09T07:11:26.709Z,18.91
2022-09-09T07:13:54.857Z,19.11
2022-09-09T07:16:24.640Z,19.27
2022-09-09T07:18:52.595Z,19.46
2022-09-09T07:21:21.686Z,19.70
2022-09-09T07:23:50.553Z,19.97
2022-09-09T07:26:20.432Z,20.26
2022-09-09T07:28:48.595Z,20.51
2022-09-09T07:31:17.858Z,20.70
2022-09-09T07:33:46.724Z,20.90
2022-09-09T07:36:16.913Z,21.18
2022-09-09T07:38:46.838Z,21.44
2022-09-09T07:41:18.353Z,21.60
2022-09-09T07:43:48.705Z,21.76
2022-09-09T07:46:18.071Z,21.85
2022-09-09T07:48:46.365Z,21.89
2022-09-09T07:51:19.919Z,21.95
2022-09-09T07:53:49.980Z,22.09
2022-09-09T07:56:24.255Z,22.33
2022-09-09T07:58:53.428Z,22.52
2022-09-09T08:01:23.427Z,22.78
2022-09-09T08:03:56.623Z,23.06
2022-09-09T08:06:26.056Z,23.27
2022-09-09T08:08:54.062Z,23.43
2022-09-09T08:11:25.393Z,23.52
2022-09-09T08:13:55.458Z,23.62
2022-09-09T08:16:28.157Z,23.77
2022-09-09T08:18:56.100Z,23.80
2022-09-09T08:21:25.395Z,23.76
2022-09-09T08:23:57.961Z,23.69
2022-09-09T08:26:29.362Z,23.62
2022-09-09T08:28:58.930Z,23.61
2022-09-09T08:31:29.080Z,23.78
2022-09-09T08:33:57.925Z,24.17
2022-09-09T08:36:28.123Z,24.70
2022-09-09T10:57:33.802Z,31.14
2022-09-09T11:00:06.933Z,31.34
2022-09-09T11:02:36.412Z,31.67
2022-09-09T11:05:08.456Z,32.06
2022-09-09T11:07:41.275Z,32.13
2022-09-09T11:33:20.903Z,28.37
2022-09-09T11:36:05.903Z,28.29
2022-09-09T11:38:46.313Z,28.40
2022-09-09T11:41:20.920Z,28.54
2022-09-09T11:43:52.307Z,28.65
2022-09-09T11:46:26.745Z,28.70
2022-09-09T11:49:07.753Z,28.66
2022-09-09T11:51:41.446Z,28.72
2022-09-09T11:54:32.827Z,28.75
2022-09-09T11:57:08.480Z,28.77
2022-09-09T11:59:40.645Z,28.75
2022-09-09T12:02:21.920Z,28.77
2022-09-09T12:05:03.419Z,28.74
2022-09-09T12:07:39.861Z,28.69
2022-09-09T12:10:30.369Z,28.54
2022-09-09T12:13:11.895Z,28.43
2022-09-09T12:15:55.916Z,28.34
2022-09-09T12:18:36.992Z,28.29
2022-09-09T12:21:22.677Z,28.20
2022-09-09T12:23:58.298Z,28.10
2022-09-09T12:26:37.713Z,27.96
2022-09-09T12:29:20.031Z,27.87
2022-09-09T12:31:58.989Z,27.66
2022-09-09T12:34:40.270Z,27.46
2022-09-09T12:37:24.115Z,27.35
2022-09-09T12:39:57.952Z,27.25
2022-09-09T12:42:27.602Z,27.18
2022-09-09T12:44:58.440Z,27.11
2022-09-09T12:47:44.136Z,27.05
2022-09-09T12:50:20.852Z,26.88
2022-09-09T12:52:52.955Z,26.48
2022-09-09T12:55:27.890Z,26.17
2022-09-09T12:58:00.557Z,25.99
2022-09-09T13:00:35.080Z,25.80
2022-09-09T13:03:05.922Z,25.56
2022-09-09T13:05:40.150Z,25.33
2022-09-09T13:08:14.455Z,25.15
2022-09-09T13:11:00.127Z,25.06
2022-09-09T13:13:40.827Z,25.01
2022-09-09T13:16:20.522Z,24.90
2022-09-09T13:18:49.165Z,24.73
2022-09-09T13:21:17.421Z,24.62
2022-09-09T13:23:53.412Z,24.51
2022-09-09T13:26:27.602Z,24.43
2022-09-09T13:28:57.160Z,24.34
2022-09-09T13:31:29.952Z,24.28
2022-09-09T13:33:58.665Z,24.23
2022-09-09T13:36:32.420Z,24.19
2022-09-09T13:39:04.036Z,24.17
2022-09-09T13:41:35.534Z,24.14
2022-09-09T13:44:05.220Z,24.11
2022-09-09T13:46:36.252Z,24.09
2022-09-09T13:49:21.018Z,24.02
2022-09-09T13:51:51.742Z,23.96
2022-09-09T13:54:24.038Z,23.93
2022-09-09T13:56:52.194Z,23.91
2022-09-09T13:59:22.528Z,23.84
2022-09-09T14:01:55.491Z,23.76
2022-09-09T14:04:23.665Z,23.72
2022-09-09T14:06:52.390Z,23.66
2022-09-09T14:09:21.695Z,23.63
2022-09-09T14:11:49.678Z,23.60
2022-09-09T14:14:17.754Z,23.58
2022-09-09T14:16:45.816Z,23.56
2022-09-09T14:19:13.874Z,23.53
2022-09-09T14:21:41.939Z,23.48
2022-09-09T14:24:09.965Z,23.49
2022-09-09T14:26:39.501Z,23.51
2022-09-09T14:29:07.457Z,23.51
2022-09-09T14:31:35.391Z,23.47
2022-09-09T14:34:03.385Z,23.39
2022-09-09T14:36:31.449Z,23.30
2022-09-09T14:38:59.662Z,23.25
2022-09-09T14:41:27.735Z,23.20
2022-09-09T14:43:57.397Z,23.16
2022-09-09T14:46:25.486Z,23.15
2022-09-09T14:51:23.298Z,23.12
2022-09-09T14:53:54.708Z,23.10
2022-09-09T14:56:25.227Z,23.10
2022-09-09T14:58:54.760Z,23.07
2022-09-09T15:01:24.834Z,23.04
2022-09-09T15:03:54.346Z,23.05
2022-09-09T15:06:25.293Z,23.02
2022-09-09T15:08:54.880Z,23.01
2022-09-09T15:11:25.670Z,23.01
2022-09-09T15:13:54.530Z,23.00
2022-09-09T15:16:26.567Z,23.02
2022-09-09T15:18:56.956Z,23.02
2022-09-09T15:21:26.896Z,23.01
2022-09-09T15:23:54.763Z,23.02
2022-09-09T15:26:23.054Z,23.02
2022-09-09T15:28:51.981Z,23.00
2022-09-09T15:31:22.116Z,22.97
2022-09-09T15:33:52.774Z,22.92
2022-09-09T15:36:22.842Z,22.86
2022-09-09T15:38:51.261Z,22.81
2022-09-09T15:41:19.918Z,22.80
2022-09-09T15:43:48.540Z,22.78
2022-09-09T15:46:28.944Z,22.77
2022-09-09T15:49:00.020Z,22.74
2022-09-09T15:51:42.159Z,22.72
2022-09-09T15:54:13.388Z,22.73
2022-09-09T15:56:41.780Z,22.75
2022-09-09T15:59:09.765Z,22.78
2022-09-09T16:01:37.797Z,22.80
2022-09-09T16:04:07.480Z,22.80
2022-09-09T16:06:35.296Z,22.81
2022-09-09T16:09:06.369Z,22.82
2022-09-09T16:11:36.624Z,22.84
2022-09-09T16:14:05.145Z,22.87
2022-09-09T16:16:33.417Z,22.87
2022-09-09T16:19:03.009Z,22.87
2022-09-09T16:21:33.464Z,22.86
2022-09-09T16:24:03.361Z,22.83
2022-09-09T16:26:33.038Z,22.77
2022-09-09T16:29:01.063Z,22.73
2022-09-09T16:31:30.495Z,22.71
2022-09-09T16:33:58.942Z,22.66
2022-09-09T16:36:28.982Z,22.62
2022-09-09T16:38:59.422Z,22.58
2022-09-09T16:41:28.608Z,22.51
2022-09-09T16:43:57.739Z,22.48
2022-09-09T16:46:26.356Z,22.44
2022-09-09T16:48:55.116Z,22.42
2022-09-09T16:51:24.974Z,22.40
2022-09-09T16:53:53.330Z,22.38
2022-09-09T16:56:25.539Z,22.35
2022-09-09T16:58:53.957Z,22.34
2022-09-09T17:01:21.684Z,22.25
2022-09-09T17:03:49.616Z,22.17
2022-09-09T17:06:17.474Z,22.13
2022-09-09T17:08:45.505Z,22.10
2022-09-09T17:11:15.140Z,22.04
2022-09-09T17:13:45.081Z,22.02
2022-09-09T17:16:13.848Z,22.00
2022-09-09T17:18:41.837Z,21.98
2022-09-09T17:21:15.895Z,21.97
2022-09-09T17:23:44.142Z,21.94
2022-09-09T17:26:14.508Z,21.90
2022-09-09T17:28:44.692Z,21.83
2022-09-09T17:31:14.280Z,21.76
2022-09-09T17:33:45.503Z,21.71
2022-09-09T17:36:15.199Z,21.67
2022-09-09T17:38:44.433Z,21.65
2022-09-09T17:41:14.978Z,21.64
2022-09-09T17:43:44.373Z,21.63
2022-09-09T17:48:55.615Z,21.57
2022-09-09T17:51:31.180Z,21.54
2022-09-09T17:54:12.191Z,21.51
2022-09-09T17:56:55.755Z,21.45
2022-09-09T17:59:39.747Z,21.34
2022-09-09T18:02:19.965Z,21.27
2022-09-09T18:04:57.509Z,21.19
2022-09-09T18:13:01.785Z,20.98
2022-09-09T18:26:26.237Z,20.56
2022-09-09T18:28:55.926Z,20.45
2022-09-09T18:31:27.139Z,20.38
2022-09-09T18:33:56.945Z,20.31
2022-09-09T18:36:26.686Z,20.25
2022-09-09T18:38:56.522Z,20.24
2022-09-09T18:46:51.514Z,20.16
2022-09-09T18:49:42.515Z,20.12
2022-09-09T18:52:13.130Z,20.07
2022-09-09T18:55:02.439Z,20.07
2022-09-09T19:07:01.514Z,19.88
2022-09-09T19:12:11.370Z,19.80
2022-09-09T19:14:41.019Z,19.74
2022-09-09T19:17:17.257Z,19.69
2022-09-09T19:22:34.176Z,19.60
2022-09-09T19:25:18.421Z,19.55
2022-09-09T19:28:00.106Z,19.46
2022-09-09T19:30:37.543Z,19.34
2022-09-09T19:33:16.106Z,19.24
2022-09-09T19:38:51.330Z,19.01
2022-09-09T19:44:20.292Z,18.78
2022-09-09T19:47:01.077Z,18.66
2022-09-09T23:01:35.694Z,16.08
2022-09-09T23:04:04.899Z,16.00
2022-09-09T23:06:38.763Z,16.00
2022-09-09T23:09:09.144Z,16.00
2022-09-09T23:11:41.486Z,15.99
2022-09-09T23:32:52.212Z,15.86
2022-09-09T23:35:22.152Z,15.90
2022-09-09T23:37:52.178Z,15.91
2022-09-09T23:40:20.688Z,15.92
2022-09-09T23:42:49.206Z,15.90
2022-09-09T23:45:17.682Z,15.86
2022-09-09T23:47:45.230Z,15.84
2022-09-09T23:50:14.227Z,15.83
2022-09-09T23:52:44.053Z,15.82
2022-09-09T23:55:11.815Z,15.81
2022-09-09T23:57:39.367Z,15.75
